createdAt,value
2022-12-14T00:01:49.442Z,47.50
2022-12-14T00:04:17.888Z,45.03
2022-12-14T00:06:46.851Z,42.50
2022-12-14T00:09:15.230Z,40.67
2022-12-14T00:11:43.226Z,41.80
2022-12-14T00:14:11.185Z,39.38
2022-12-14T00:16:39.063Z,42.17
2022-12-14T00:19:07.081Z,43.65
2022-12-14T00:21:35.239Z,43.92
2022-12-14T00:24:04.423Z,42.85
2022-12-14T00:26:33.245Z,38.55
2022-12-14T00:29:02.371Z,37.78
2022-12-14T00:31:31.605Z,37.40
2022-12-14T00:34:01.467Z,40.38
2022-12-14T00:36:31.747Z,42.25
2022-12-14T00:38:59.923Z,36.80
2022-12-14T00:41:27.928Z,48.03
2022-12-14T00:43:56.273Z,42.03
2022-12-14T00:46:25.311Z,40.75
2022-12-14T00:48:53.350Z,43.85
2022-12-14T00:51:21.850Z,45.63
2022-12-14T00:53:50.416Z,43.42
2022-12-14T00:56:19.208Z,41.33
2022-12-14T00:58:52.780Z,43.53
2022-12-14T01:01:22.568Z,43.35
2022-12-14T01:03:51.084Z,42.50
2022-12-14T01:06:21.828Z,40.05
2022-12-14T01:08:50.697Z,43.00
2022-12-14T01:11:18.835Z,40.53
2022-12-14T01:13:49.373Z,44.80
2022-12-14T01:16:18.344Z,41.10
2022-12-14T01:18:46.529Z,41.08
2022-12-14T01:21:19.422Z,40.25
2022-12-14T01:23:51.315Z,43.28
2022-12-14T01:26:19.650Z,47.88
2022-12-14T01:28:53.697Z,42.92
2022-12-14T01:31:28.748Z,38.33
2022-12-14T01:33:57.387Z,38.15
2022-12-14T01:36:30.926Z,37.63
2022-12-14T01:39:06.231Z,40.47
2022-12-14T01:46:50.999Z,35.88
2022-12-14T01:49:40.188Z,27.70
2022-12-14T01:52:25.976Z,36.58
2022-12-14T01:55:03.182Z,31.88
2022-12-14T01:57:49.845Z,35.78
2022-12-14T02:00:18.256Z,30.27
2022-12-14T02:03:08.381Z,28.77
2022-12-14T02:05:41.517Z,31.67
2022-12-14T02:08:12.080Z,30.77
2022-12-14T02:10:40.257Z,32.83
2022-12-14T02:13:14.973Z,35.17
2022-12-14T02:15:44.377Z,41.70
2022-12-14T02:18:33.174Z,41.95
2022-12-14T02:21:10.930Z,44.67
2022-12-14T02:24:03.333Z,34.75
2022-12-14T02:27:22.242Z,39.55
2022-12-14T02:29:56.297Z,40.17
2022-12-14T02:32:57.265Z,39.78
2022-12-14T02:35:40.318Z,38.85
2022-12-14T02:38:20.011Z,33.95
2022-12-14T02:41:07.850Z,37.60
2022-12-14T02:43:51.523Z,37.17
2022-12-14T02:48:59.075Z,38.90
2022-12-14T02:51:36.454Z,33.40
2022-12-14T02:54:17.081Z,43.67
2022-12-14T02:56:53.354Z,43.00
2022-12-14T02:59:23.619Z,49.13
2022-12-14T03:01:53.007Z,55.03
2022-12-14T03:04:22.240Z,62.63
2022-12-14T03:07:02.778Z,56.75
2022-12-14T03:09:32.482Z,60.38
2022-12-14T03:12:13.636Z,65.65
2022-12-14T03:14:48.332Z,65.35
2022-12-14T03:17:28.184Z,67.15
2022-12-14T03:20:20.734Z,62.78
2022-12-14T03:23:00.297Z,63.47
2022-12-14T03:25:52.101Z,71.70
2022-12-14T03:28:45.854Z,65.70
2022-12-14T03:31:40.001Z,95.97
2022-12-14T03:34:14.344Z,71.32
2022-12-14T03:36:48.805Z,68.22
2022-12-14T03:39:25.701Z,71.32
2022-12-14T03:42:20.124Z,59.80
2022-12-14T03:45:18.218Z,59.92
2022-12-14T03:48:04.559Z,76.07
2022-12-14T03:50:45.902Z,76.30
2022-12-14T03:53:30.809Z,77.28
2022-12-14T03:56:09.708Z,85.70
2022-12-14T03:58:57.293Z,83.35
2022-12-14T04:01:53.562Z,70.32
2022-12-14T04:04:47.790Z,61.22
2022-12-14T04:07:26.310Z,58.53
2022-12-14T04:10:04.633Z,57.75
2022-12-14T04:12:57.808Z,60.63
2022-12-14T04:15:50.199Z,58.45
2022-12-14T04:19:00.532Z,51.50
2022-12-14T04:21:48.023Z,54.08
2022-12-14T04:25:07.634Z,57.95
2022-12-14T04:27:44.659Z,60.70
2022-12-14T04:30:14.543Z,66.40
2022-12-14T04:32:58.299Z,62.45
2022-12-14T04:35:32.006Z,64.88
2022-12-14T04:38:35.169Z,59.72
2022-12-14T04:41:09.538Z,60.95
2022-12-14T04:43:45.067Z,71.65
2022-12-14T04:46:25.158Z,62.22
2022-12-14T04:49:17.158Z,67.53
2022-12-14T04:51:50.894Z,65.10
2022-12-14T04:54:24.869Z,57.30
2022-12-14T04:57:18.787Z,55.67
2022-12-14T04:59:49.367Z,54.38
2022-12-14T05:02:34.348Z,58.67
2022-12-14T05:05:11.992Z,59.22
2022-12-14T05:08:17.799Z,52.00
2022-12-14T05:11:05.233Z,54.08
2022-12-14T05:13:48.870Z,58.47
2022-12-14T05:16:22.526Z,54.63
2022-12-14T05:21:38.273Z,56.97
2022-12-14T05:24:07.216Z,64.40
2022-12-14T05:26:35.936Z,63.97
2022-12-14T05:29:03.909Z,59.70
2022-12-14T05:31:32.725Z,66.15
2022-12-14T05:34:00.603Z,61.70
2022-12-14T05:36:29.184Z,59.35
2022-12-14T05:38:57.764Z,65.65
2022-12-14T05:41:25.987Z,65.63
2022-12-14T05:43:54.461Z,64.32
2022-12-14T05:46:47.441Z,65.05
2022-12-14T05:49:15.538Z,67.13
2022-12-14T05:51:44.125Z,63.42
2022-12-14T05:54:12.035Z,68.82
2022-12-14T05:56:41.095Z,99.68
2022-12-14T05:59:15.533Z,348.60
2022-12-14T06:01:45.717Z,77.68
2022-12-14T06:04:18.558Z,167.60
2022-12-14T06:06:47.124Z,73.85
2022-12-14T06:09:16.813Z,67.13
2022-12-14T06:11:46.081Z,64.43
2022-12-14T06:14:14.538Z,51.45
2022-12-14T06:16:44.688Z,49.50
2022-12-14T06:19:14.405Z,52.28
2022-12-14T06:21:43.735Z,39.63
2022-12-14T06:24:13.872Z,52.10
2022-12-14T06:26:42.804Z,49.70
2022-12-14T06:29:16.598Z,49.22
2022-12-14T06:31:44.619Z,54.20
2022-12-14T06:34:13.586Z,53.50
2022-12-14T06:36:43.624Z,49.53
2022-12-14T06:39:14.439Z,50.88
2022-12-14T06:41:43.169Z,54.10
2022-12-14T06:44:14.459Z,43.10
2022-12-14T06:46:43.091Z,36.35
2022-12-14T06:49:16.877Z,37.83
2022-12-14T06:51:45.296Z,41.78
2022-12-14T06:54:13.944Z,38.42
2022-12-14T06:56:44.351Z,41.05
2022-12-14T06:59:13.531Z,38.08
2022-12-14T07:01:42.595Z,36.47
2022-12-14T07:04:11.352Z,36.10
2022-12-14T07:06:41.201Z,34.30
2022-12-14T07:09:13.099Z,39.30
2022-12-14T07:11:41.603Z,39.95
2022-12-14T07:14:17.470Z,37.25
2022-12-14T07:16:48.519Z,36.38
2022-12-14T07:19:18.315Z,36.75
2022-12-14T07:21:46.386Z,37.70
2022-12-14T07:24:14.693Z,37.25
2022-12-14T07:26:42.639Z,40.35
2022-12-14T07:29:12.330Z,44.80
2022-12-14T07:31:40.602Z,37.90
2022-12-14T07:34:12.788Z,41.90
2022-12-14T07:36:41.032Z,36.08
2022-12-14T07:39:16.041Z,39.90
2022-12-14T07:41:46.023Z,34.33
2022-12-14T07:44:24.339Z,34.33
2022-12-14T07:46:54.261Z,35.03
2022-12-14T07:49:22.321Z,33.03
2022-12-14T07:51:52.395Z,32.33
2022-12-14T07:54:21.334Z,37.42
2022-12-14T07:56:51.071Z,34.20
2022-12-14T07:59:19.510Z,31.90
2022-12-14T08:01:47.640Z,33.35
2022-12-14T08:04:18.681Z,28.67
2022-12-14T08:06:47.830Z,33.80
2022-12-14T08:09:17.462Z,31.60
2022-12-14T08:11:45.486Z,29.88
2022-12-14T08:14:17.536Z,26.55
2022-12-14T08:16:47.166Z,19.55
2022-12-14T08:19:17.091Z,22.45
2022-12-14T08:21:46.146Z,19.98
2022-12-14T08:24:17.120Z,23.90
2022-12-14T08:26:49.327Z,27.75
2022-12-14T08:29:19.117Z,26.90
2022-12-14T08:31:47.274Z,31.73
2022-12-14T08:34:22.033Z,25.85
2022-12-14T08:36:51.481Z,19.60
2022-12-14T08:39:20.242Z,22.85
2022-12-14T08:41:48.325Z,15.77
2022-12-14T08:44:17.601Z,13.40
2022-12-14T08:46:46.020Z,17.42
2022-12-14T08:49:15.182Z,19.95
2022-12-14T08:51:43.465Z,42.60
2022-12-14T08:54:11.518Z,24.10
2022-12-14T08:56:39.663Z,21.38
2022-12-14T08:59:08.509Z,22.27
2022-12-14T09:01:36.545Z,21.67
2022-12-14T09:04:07.966Z,18.30
2022-12-14T09:06:39.287Z,11.80
2022-12-14T09:09:15.692Z,13.70
2022-12-14T09:11:45.629Z,10.38
2022-12-14T09:14:14.138Z,13.85
2022-12-14T09:16:42.778Z,16.23
2022-12-14T09:19:11.318Z,16.15
2022-12-14T09:21:39.992Z,18.02
2022-12-14T09:24:18.271Z,24.65
2022-12-14T09:26:47.595Z,24.27
2022-12-14T09:29:17.588Z,27.52
2022-12-14T09:31:45.769Z,32.13
2022-12-14T09:34:14.495Z,35.35
2022-12-14T09:36:43.241Z,30.13
2022-12-14T09:39:14.958Z,26.27
2022-12-14T09:41:50.699Z,24.20
2022-12-14T09:44:25.102Z,22.52
2022-12-14T09:47:15.932Z,25.58
2022-12-14T09:49:51.635Z,27.65
2022-12-14T09:52:24.158Z,21.80
2022-12-14T09:54:55.101Z,22.33
2022-12-14T09:57:33.532Z,20.25
2022-12-14T10:00:01.973Z,25.35
2022-12-14T10:02:43.926Z,24.60
2022-12-14T10:05:30.145Z,21.55
2022-12-14T10:08:23.308Z,17.25
2022-12-14T10:11:03.632Z,17.08
2022-12-14T10:14:08.207Z,4.78
2022-12-14T10:16:59.233Z,1.88
2022-12-14T10:19:42.697Z,3.20
2022-12-14T10:24:54.995Z,2.85
2022-12-14T10:27:25.603Z,4.57
2022-12-14T10:29:59.689Z,2.72
2022-12-14T10:32:34.488Z,2.42
2022-12-14T10:35:38.841Z,3.70
2022-12-14T10:38:21.236Z,2.67
2022-12-14T10:40:50.762Z,3.97
2022-12-14T10:43:23.965Z,1.27
2022-12-14T10:46:33.380Z,1.40
2022-12-14T10:49:17.785Z,1.60
2022-12-14T10:51:54.773Z,1.40
2022-12-14T10:54:30.685Z,1.02
2022-12-14T10:56:58.757Z,1.15
2022-12-14T10:59:38.786Z,1.10
2022-12-14T11:02:17.253Z,1.55
2022-12-14T11:04:53.150Z,1.60
2022-12-14T11:07:27.785Z,2.72
2022-12-14T11:10:22.496Z,2.35
2022-12-14T11:13:20.748Z,2.25
2022-12-14T11:15:53.065Z,2.03
2022-12-14T11:18:31.524Z,2.33
2022-12-14T11:21:03.391Z,1.52
2022-12-14T11:23:38.232Z,0.77
2022-12-14T11:26:32.887Z,0.75
2022-12-14T11:29:03.959Z,0.75
2022-12-14T11:31:45.867Z,3.47
2022-12-14T11:34:37.938Z,2.03
2022-12-14T11:37:23.013Z,2.95
2022-12-14T11:39:54.359Z,2.17
2022-12-14T11:42:23.412Z,1.98
2022-12-14T11:44:52.305Z,3.58
2022-12-14T11:47:29.253Z,2.67
2022-12-14T11:49:57.996Z,7.00
2022-12-14T11:52:47.279Z,3.88
2022-12-14T11:55:26.756Z,4.55
2022-12-14T11:57:59.451Z,1.58
2022-12-14T12:00:49.799Z,1.30
2022-12-14T12:03:26.610Z,1.85
2022-12-14T12:06:07.800Z,2.10
2022-12-14T12:08:38.249Z,3.33
2022-12-14T12:11:28.942Z,3.15
2022-12-14T12:14:04.118Z,3.47
2022-12-14T12:16:33.368Z,4.10
2022-12-14T12:19:11.670Z,8.50
2022-12-14T12:21:45.037Z,2.80
2022-12-14T12:25:08.324Z,3.22
2022-12-14T12:27:31.918Z,1.55
2022-12-14T12:30:14.177Z,1.75
2022-12-14T12:32:49.964Z,2.58
2022-12-14T12:35:30.367Z,1.00
2022-12-14T12:38:10.029Z,2.60
2022-12-14T12:40:54.548Z,1.10
2022-12-14T12:43:30.441Z,3.85
2022-12-14T12:46:19.025Z,0.60
2022-12-14T12:48:57.870Z,1.55
2022-12-14T12:51:31.231Z,2.22
2022-12-14T12:54:46.081Z,1.63
2022-12-14T12:57:15.757Z,1.23
2022-12-14T12:59:48.551Z,3.55
2022-12-14T13:02:29.430Z,2.53
2022-12-14T13:05:10.852Z,1.65
2022-12-14T13:08:24.029Z,28.73
2022-12-14T13:13:47.014Z,6.90
2022-12-14T13:16:37.852Z,3.35
2022-12-14T13:19:48.059Z,6.35
2022-12-14T13:22:05.885Z,2.63
2022-12-14T13:24:37.097Z,4.30
2022-12-14T13:27:17.927Z,2.42
2022-12-14T13:30:23.566Z,3.63
2022-12-14T13:33:17.399Z,2.40
2022-12-14T13:36:15.996Z,1.75
2022-12-14T13:38:50.808Z,1.95
2022-12-14T13:41:42.078Z,2.55
2022-12-14T13:44:41.887Z,3.75
2022-12-14T13:47:17.865Z,8.43
2022-12-14T13:50:26.960Z,7.25
2022-12-14T13:52:46.804Z,6.20
2022-12-14T13:55:35.479Z,4.55
2022-12-14T13:58:21.032Z,5.35
2022-12-14T14:00:56.119Z,2.50
2022-12-14T14:03:36.267Z,2.67
2022-12-14T14:06:12.540Z,4.28
2022-12-14T14:09:03.340Z,5.10
2022-12-14T14:11:44.025Z,4.60
2022-12-14T14:14:44.765Z,4.28
2022-12-14T14:17:43.622Z,9.07
2022-12-14T14:20:30.515Z,4.45
2022-12-14T14:23:16.182Z,3.53
2022-12-14T14:25:51.695Z,2.05
2022-12-14T14:28:23.171Z,3.53
2022-12-14T14:30:54.352Z,2.17
2022-12-14T14:33:45.410Z,7.10
2022-12-14T14:36:23.680Z,5.93
2022-12-14T14:38:52.898Z,5.68
2022-12-14T14:41:43.446Z,4.70
2022-12-14T14:44:26.189Z,8.60
2022-12-14T14:46:54.328Z,4.33
2022-12-14T14:49:42.661Z,5.90
2022-12-14T14:52:37.747Z,4.63
2022-12-14T14:58:29.231Z,7.30
2022-12-14T15:01:15.696Z,9.68
2022-12-14T15:04:06.357Z,6.65
2022-12-14T15:06:43.181Z,10.50
2022-12-14T15:09:17.515Z,8.35
2022-12-14T15:12:01.328Z,7.97
2022-12-14T15:14:48.246Z,7.45
2022-12-14T15:17:21.794Z,8.65
2022-12-14T15:20:03.311Z,11.70
2022-12-14T15:22:42.704Z,10.93
2022-12-14T15:25:26.748Z,9.57
2022-12-14T15:27:57.893Z,7.95
2022-12-14T15:30:28.151Z,10.65
2022-12-14T15:33:08.545Z,10.75
2022-12-14T15:35:40.271Z,12.75
2022-12-14T15:38:17.137Z,7.07
2022-12-14T15:41:22.912Z,7.20
2022-12-14T15:43:59.787Z,8.07
2022-12-14T15:46:33.834Z,16.70
2022-12-14T15:49:08.911Z,12.18
2022-12-14T15:51:40.302Z,9.30
2022-12-14T15:54:20.247Z,8.30
2022-12-14T15:56:56.932Z,12.40
2022-12-14T15:59:33.484Z,15.02
2022-12-14T16:02:24.147Z,9.15
2022-12-14T16:04:57.231Z,9.05
2022-12-14T16:07:38.704Z,9.95
2022-12-14T16:10:33.185Z,7.75
2022-12-14T16:13:31.011Z,5.68
2022-12-14T16:16:07.256Z,5.93
2022-12-14T16:18:36.227Z,5.90
2022-12-14T16:21:53.613Z,4.10
2022-12-14T16:24:26.037Z,6.43
2022-12-14T16:29:33.584Z,6.70
2022-12-14T16:32:07.352Z,9.25
2022-12-14T16:34:35.533Z,15.00
2022-12-14T16:37:31.718Z,8.05
2022-12-14T16:39:54.242Z,8.10
2022-12-14T16:42:25.024Z,18.98
2022-12-14T16:44:56.850Z,17.23
2022-12-14T16:48:13.828Z,12.10
2022-12-14T16:50:56.930Z,20.27
2022-12-14T16:53:31.742Z,10.57
2022-12-14T16:56:07.647Z,10.77
2022-12-14T16:58:36.642Z,13.50
2022-12-14T17:01:08.122Z,13.13
2022-12-14T17:03:37.895Z,14.07
2022-12-14T17:06:07.705Z,11.93
2022-12-14T17:08:35.822Z,14.93
2022-12-14T17:11:03.915Z,13.75
2022-12-14T17:13:32.610Z,14.85
2022-12-14T17:16:02.278Z,12.65
2022-12-14T17:18:37.598Z,12.55
2022-12-14T17:21:07.232Z,9.70
2022-12-14T17:23:39.022Z,14.43
2022-12-14T17:26:12.510Z,11.02
2022-12-14T17:28:40.667Z,11.57
2022-12-14T17:31:11.221Z,11.02
2022-12-14T17:33:40.088Z,19.30
2022-12-14T17:36:08.235Z,13.13
2022-12-14T17:39:01.361Z,15.57
2022-12-14T17:41:34.256Z,15.07
2022-12-14T17:44:03.233Z,14.18
2022-12-14T17:46:31.681Z,27.42
2022-12-14T17:49:05.983Z,14.80
2022-12-14T17:51:41.743Z,13.35
2022-12-14T17:54:15.694Z,16.08
2022-12-14T17:56:44.912Z,12.98
2022-12-14T17:59:13.291Z,19.33
2022-12-14T18:01:41.769Z,19.45
2022-12-14T18:04:09.923Z,13.93
2022-12-14T18:06:37.923Z,17.08
2022-12-14T18:09:08.060Z,36.03
2022-12-14T18:11:39.186Z,9.85
2022-12-14T18:14:15.591Z,19.65
2022-12-14T18:16:43.580Z,20.00
2022-12-14T18:19:12.283Z,11.15
2022-12-14T18:21:40.370Z,12.82
2022-12-14T18:24:11.890Z,9.88
2022-12-14T18:26:40.230Z,7.90
2022-12-14T18:29:08.239Z,10.50
2022-12-14T18:31:38.090Z,11.40
2022-12-14T18:34:06.685Z,20.27
2022-12-14T18:36:34.603Z,9.07
2022-12-14T18:39:02.531Z,10.05
2022-12-14T18:41:31.281Z,11.10
2022-12-14T18:44:00.700Z,14.48
2022-12-14T18:46:28.727Z,12.65
2022-12-14T18:48:56.699Z,26.38
2022-12-14T18:51:26.770Z,19.13
2022-12-14T18:53:56.763Z,15.30
2022-12-14T18:56:28.241Z,11.50
2022-12-14T18:58:56.443Z,13.05
2022-12-14T19:01:25.135Z,22.10
2022-12-14T19:03:53.504Z,40.05
2022-12-14T19:09:13.611Z,24.15
2022-12-14T19:11:42.402Z,14.80
2022-12-14T19:14:11.307Z,22.90
2022-12-14T19:16:39.436Z,17.08
2022-12-14T19:19:07.559Z,23.85
2022-12-14T19:21:40.520Z,12.35
2022-12-14T19:24:08.755Z,12.57
2022-12-14T19:26:38.793Z,9.82
2022-12-14T19:29:06.814Z,15.25
2022-12-14T19:31:34.907Z,10.02
2022-12-14T19:34:02.976Z,9.68
2022-12-14T19:36:31.793Z,11.32
2022-12-14T19:39:00.639Z,7.63
2022-12-14T19:41:28.864Z,13.20
2022-12-14T19:43:57.983Z,23.13
2022-12-14T19:46:26.660Z,13.95
2022-12-14T19:48:56.070Z,10.30
2022-12-14T19:51:24.282Z,12.02
2022-12-14T19:53:54.167Z,20.10
2022-12-14T19:56:22.546Z,18.20
2022-12-14T19:58:50.650Z,24.65
2022-12-14T20:01:19.398Z,17.25
2022-12-14T20:03:49.288Z,20.20
2022-12-14T20:06:17.593Z,8.70
2022-12-14T20:08:49.289Z,7.13
2022-12-14T20:11:17.644Z,7.25
2022-12-14T20:13:46.153Z,4.32
2022-12-14T20:16:17.841Z,9.43
2022-12-14T20:18:46.706Z,12.20
2022-12-14T20:26:22.816Z,6.07
2022-12-14T20:28:53.545Z,5.40
2022-12-14T20:31:22.754Z,6.00
2022-12-14T20:33:51.051Z,4.95
2022-12-14T20:36:19.465Z,5.30
2022-12-14T20:38:49.135Z,4.80
2022-12-14T20:41:17.538Z,7.75
2022-12-14T20:43:45.822Z,8.25
2022-12-14T20:46:36.958Z,15.50
2022-12-14T20:49:32.921Z,11.18
2022-12-14T20:52:01.392Z,7.20
2022-12-14T20:54:29.556Z,11.73
2022-12-14T20:56:57.808Z,4.10
2022-12-14T20:59:27.622Z,5.63
2022-12-14T21:01:57.022Z,3.08
2022-12-14T21:04:26.051Z,3.67
2022-12-14T21:06:54.147Z,5.00
2022-12-14T21:09:22.140Z,2.00
2022-12-14T21:12:10.428Z,5.78
2022-12-14T21:14:42.704Z,5.07
2022-12-14T21:17:11.153Z,4.20
2022-12-14T21:19:39.982Z,6.05
2022-12-14T21:22:13.068Z,3.65
2022-12-14T21:27:31.306Z,8.43
2022-12-14T21:30:00.701Z,4.55
2022-12-14T21:32:29.507Z,3.45
2022-12-14T21:34:57.681Z,17.65
2022-12-14T21:37:28.602Z,2.63
2022-12-14T21:39:56.940Z,2.17
2022-12-14T21:42:25.405Z,2.25
2022-12-14T21:44:54.383Z,4.25
2022-12-14T21:47:25.641Z,3.47
2022-12-14T21:49:54.815Z,2.90
2022-12-14T21:52:25.169Z,5.75
2022-12-14T21:54:53.182Z,5.20
2022-12-14T21:57:49.469Z,8.43
2022-12-14T22:00:19.287Z,5.90
2022-12-14T22:02:48.096Z,4.25
2022-12-14T22:05:16.763Z,5.50
2022-12-14T22:07:44.976Z,6.90
2022-12-14T22:10:13.188Z,3.95
2022-12-14T22:12:41.138Z,4.47
2022-12-14T22:15:10.563Z,5.20
2022-12-14T22:17:38.480Z,7.15
2022-12-14T22:20:07.430Z,2.72
2022-12-14T22:22:35.338Z,2.63
2022-12-14T22:25:03.947Z,2.95
2022-12-14T22:27:32.273Z,1.30
2022-12-14T22:30:00.671Z,2.53
2022-12-14T22:32:28.704Z,1.42
2022-12-14T22:34:56.642Z,7.18
2022-12-14T22:37:24.912Z,2.08
2022-12-14T22:39:52.775Z,5.07
2022-12-14T22:42:20.771Z,8.05
2022-12-14T22:44:49.206Z,4.80
2022-12-14T22:47:17.685Z,4.97
2022-12-14T22:49:45.868Z,6.57
2022-12-14T22:52:14.062Z,18.25
2022-12-14T22:54:42.305Z,15.40
2022-12-14T22:57:17.348Z,7.53
2022-12-14T23:00:15.944Z,7.97
2022-12-14T23:02:48.096Z,7.63
2022-12-14T23:05:17.014Z,3.87
2022-12-14T23:07:44.984Z,4.55
2022-12-14T23:10:31.268Z,3.33
2022-12-14T23:13:17.587Z,2.38
2022-12-14T23:16:04.327Z,3.22
2022-12-14T23:18:51.182Z,6.30
2022-12-14T23:21:37.794Z,4.57
2022-12-14T23:24:26.088Z,6.45
2022-12-14T23:27:13.402Z,22.10
2022-12-14T23:29:59.918Z,5.05
2022-12-14T23:32:46.290Z,7.78
2022-12-14T23:35:32.575Z,9.48
2022-12-14T23:38:25.537Z,11.88
2022-12-14T23:41:17.936Z,9.55
2022-12-14T23:44:04.725Z,15.30
2022-12-14T23:46:51.661Z,7.60
2022-12-14T23:49:38.016Z,9.80
2022-12-14T23:52:24.492Z,5.40
2022-12-14T23:55:11.479Z,6.07
2022-12-14T23:57:58.739Z,4.63
